Time;durP1;ratioP1;P1;durP2;ratioP2;P2;SDS_P1;SDS_P2;PMS_P1;PMS_P2;Temp;Humidity;BMP_temperature;BMP_pressure;BME280_temperature;BME280_humidity;BME280_pressure;Samples;Min_cycle;Max_cycle;Signal;HPM_P1;HPM_P2
2024/01/22 00:01:24;;;;;;;;;3.75;3.50;;;;;;;;4975711;28;45351;-62
2024/01/22 00:03:49;;;;;;;;;4.33;3.33;;;;;;;;4977706;28;45364;-63
2024/01/22 00:06:15;;;;;;;;;3.00;3.00;;;;;;;;4978165;28;45643;-62
2024/01/22 00:08:40;;;;;;;;;4.00;3.75;;;;;;;;4978634;28;45479;-63
2024/01/22 00:11:05;;;;;;;;;3.00;3.00;;;;;;;;4968405;28;45391;-62
2024/01/22 00:13:30;;;;;;;;;3.00;3.00;;;;;;;;4976482;28;45456;-62
2024/01/22 00:15:56;;;;;;;;;2.67;2.67;;;;;;;;4977110;28;45548;-63
2024/01/22 00:18:21;;;;;;;;;3.75;2.00;;;;;;;;4978571;28;45428;-63
2024/01/22 00:20:46;;;;;;;;;2.00;2.00;;;;;;;;4976382;28;45378;-64
2024/01/22 00:23:11;;;;;;;;;4.00;3.00;;;;;;;;4976937;28;45401;-64
2024/01/22 00:25:36;;;;;;;;;3.67;2.33;;;;;;;;4978006;28;45612;-63
2024/01/22 00:28:02;;;;;;;;;3.67;3.67;;;;;;;;4979486;28;45385;-63
2024/01/22 00:30:27;;;;;;;;;2.50;2.00;;;;;;;;4980247;28;45514;-63
2024/01/22 00:32:52;;;;;;;;;2.00;2.00;;;;;;;;4980856;28;45405;-64
2024/01/22 00:35:18;;;;;;;;;4.75;3.25;;;;;;;;4981057;28;45696;-64
2024/01/22 00:37:43;;;;;;;;;3.50;3.00;;;;;;;;4979965;28;46497;-63
2024/01/22 00:40:08;;;;;;;;;1.00;1.00;;;;;;;;4980622;28;45430;-62
2024/01/22 00:42:34;;;;;;;;;3.00;2.00;;;;;;;;4980703;28;45338;-62
2024/01/22 00:44:59;;;;;;;;;1.00;1.00;;;;;;;;4971687;28;45263;-62
2024/01/22 00:47:24;;;;;;;;;1.00;1.00;;;;;;;;4980965;28;46753;-62
2024/01/22 00:49:49;;;;;;;;;2.00;2.00;;;;;;;;4980081;28;45520;-62
2024/01/22 00:52:15;;;;;;;;;2.00;2.00;;;;;;;;4981790;28;45649;-62
2024/01/22 00:54:40;;;;;;;;;1.75;1.75;;;;;;;;4981076;28;45314;-62
2024/01/22 00:57:05;;;;;;;;;2.50;2.50;;;;;;;;4979854;28;46903;-62
2024/01/22 00:59:30;;;;;;;;;1.67;1.67;;;;;;;;4978761;28;45508;-62
2024/01/22 01:01:56;;;;;;;;;2.75;2.75;;;;;;;;4979361;28;45512;-63
2024/01/22 01:04:21;;;;;;;;;2.00;2.00;;;;;;;;4981424;28;45242;-63
2024/01/22 01:06:46;;;;;;;;;2.00;1.67;;;;;;;;4980569;28;45259;-63
2024/01/22 01:09:11;;;;;;;;;1.00;1.00;;;;;;;;4980958;28;45378;-62
2024/01/22 01:11:36;;;;;;;;;0.00;0.00;;;;;;;;4970417;28;45588;-62
2024/01/22 01:14:02;;;;;;;;;1.00;1.00;;;;;;;;4981106;28;45241;-62
2024/01/22 01:16:28;;;;;;;;;3.75;2.00;;;;;;;;4980893;28;45740;-63
2024/01/22 01:18:54;;;;;;;;;1.50;1.50;;;;;;;;4981068;28;45675;-63
2024/01/22 01:21:22;;;;;;;;;2.00;1.00;;;;;;;;4980473;28;45625;-63
2024/01/22 01:23:48;;;;;;;;;2.00;1.00;;;;;;;;4981049;28;45435;-63
2024/01/22 01:26:13;;;;;;;;;2.00;2.00;;;;;;;;4980787;28;45416;-62
2024/01/22 01:28:38;;;;;;;;;1.67;1.67;;;;;;;;4979146;28;45512;-63
2024/01/22 01:31:03;;;;;;;;;1.33;1.33;;;;;;;;4976018;28;45673;-63
2024/01/22 01:33:29;;;;;;;;;1.75;1.00;;;;;;;;4978940;28;46831;-63
2024/01/22 01:35:54;;;;;;;;;1.33;1.33;;;;;;;;4979300;28;46426;-63
2024/01/22 01:38:19;;;;;;;;;2.00;2.00;;;;;;;;4979251;28;45518;-63
2024/01/22 01:40:44;;;;;;;;;1.67;1.67;;;;;;;;4980769;28;45412;-63
2024/01/22 01:43:10;;;;;;;;;2.00;2.00;;;;;;;;4979536;28;45579;-63
2024/01/22 01:45:35;;;;;;;;;2.50;2.00;;;;;;;;4980247;28;46794;-63
2024/01/22 01:48:01;;;;;;;;;0.75;0.75;;;;;;;;4980654;28;45460;-62
2024/01/22 01:50:26;;;;;;;;;1.00;1.00;;;;;;;;4979556;28;45351;-63
2024/01/22 01:52:52;;;;;;;;;1.25;1.25;;;;;;;;4979095;28;45277;-62
2024/01/22 01:55:19;;;;;;;;;3.75;2.00;;;;;;;;4978559;28;47170;-62
2024/01/22 01:57:44;;;;;;;;;2.00;2.00;;;;;;;;4979425;28;45716;-63
2024/01/22 02:00:10;;;;;;;;;3.50;2.25;;;;;;;;4979586;28;45563;-63
2024/01/22 02:02:39;;;;;;;;;2.50;2.50;;;;;;;;4976901;28;45442;-62
2024/01/22 02:05:05;;;;;;;;;1.75;1.00;;;;;;;;4977510;28;46509;-62
2024/01/22 02:07:30;;;;;;;;;2.00;1.25;;;;;;;;4979837;28;45408;-62
2024/01/22 02:09:55;;;;;;;;;1.50;1.25;;;;;;;;4980560;28;45422;-62
2024/01/22 02:12:21;;;;;;;;;1.00;1.00;;;;;;;;4980042;28;45622;-63
2024/01/22 02:14:46;;;;;;;;;1.00;1.00;;;;;;;;4978853;28;45652;-62
2024/01/22 02:17:12;;;;;;;;;2.00;1.00;;;;;;;;4979106;28;45253;-62
2024/01/22 02:19:37;;;;;;;;;1.00;1.00;;;;;;;;4980414;28;45497;-62
2024/01/22 02:22:03;;;;;;;;;2.25;2.00;;;;;;;;4979535;28;45527;-62
2024/01/22 02:24:28;;;;;;;;;1.00;1.00;;;;;;;;4980209;28;45549;-62
2024/01/22 02:26:53;;;;;;;;;2.00;0.50;;;;;;;;4979655;28;45317;-62
2024/01/22 02:29:19;;;;;;;;;1.00;1.00;;;;;;;;4978892;28;45272;-62
2024/01/22 02:31:47;;;;;;;;;2.00;2.00;;;;;;;;4978986;28;45486;-62
2024/01/22 02:34:13;;;;;;;;;3.00;1.25;;;;;;;;4979835;28;46575;-62
2024/01/22 02:36:38;;;;;;;;;2.50;1.00;;;;;;;;4978252;28;45449;-62
2024/01/22 02:39:03;;;;;;;;;1.00;1.00;;;;;;;;4979024;28;45435;-62
2024/01/22 02:41:29;;;;;;;;;3.00;1.00;;;;;;;;4979752;28;45563;-62
2024/01/22 02:43:56;;;;;;;;;1.50;1.50;;;;;;;;4979569;28;46339;-62
2024/01/22 02:46:25;;;;;;;;;1.00;1.00;;;;;;;;4979656;28;45336;-62
2024/01/22 02:48:50;;;;;;;;;0.00;0.00;;;;;;;;4979425;28;45399;-62
2024/01/22 02:51:16;;;;;;;;;1.00;1.00;;;;;;;;4978680;28;45510;-62
2024/01/22 02:53:41;;;;;;;;;1.00;1.00;;;;;;;;4979606;28;45480;-62
2024/01/22 02:56:06;;;;;;;;;4.00;1.00;;;;;;;;4979556;28;45356;-62
2024/01/22 02:58:32;;;;;;;;;2.00;2.00;;;;;;;;4979373;28;45683;-62
2024/01/22 03:00:57;;;;;;;;;1.00;1.00;;;;;;;;4978119;28;45562;-62
2024/01/22 03:03:22;;;;;;;;;2.00;2.00;;;;;;;;4978523;28;45675;-62
2024/01/22 03:05:47;;;;;;;;;1.33;0.00;;;;;;;;4978981;28;45444;-62
2024/01/22 03:08:13;;;;;;;;;1.00;1.00;;;;;;;;4975248;28;45372;-62
2024/01/22 03:10:38;;;;;;;;;3.00;2.00;;;;;;;;4979215;28;45460;-62
2024/01/22 03:13:03;;;;;;;;;1.00;1.00;;;;;;;;4979332;28;46163;-62
2024/01/22 03:15:29;;;;;;;;;1.00;1.00;;;;;;;;4979327;28;45402;-62
2024/01/22 03:17:54;;;;;;;;;1.00;0.00;;;;;;;;4977713;28;45418;-62
2024/01/22 03:20:19;;;;;;;;;1.00;1.00;;;;;;;;4979051;28;45298;-62
2024/01/22 03:22:45;;;;;;;;;2.00;2.00;;;;;;;;4979138;28;45401;-62
2024/01/22 03:25:12;;;;;;;;;0.50;0.50;;;;;;;;4978642;28;45349;-62
2024/01/22 03:27:38;;;;;;;;;3.50;1.00;;;;;;;;4973899;28;45483;-62
2024/01/22 03:30:03;;;;;;;;;1.00;1.00;;;;;;;;4978187;28;45397;-63
2024/01/22 03:32:28;;;;;;;;;1.75;1.75;;;;;;;;4972989;28;45597;-62
2024/01/22 03:34:54;;;;;;;;;0.75;0.75;;;;;;;;4979000;28;45329;-64
2024/01/22 03:37:19;;;;;;;;;0.67;0.67;;;;;;;;4974783;28;45568;-64
2024/01/22 03:39:44;;;;;;;;;1.00;1.00;;;;;;;;4976015;28;45582;-63
2024/01/22 03:42:11;;;;;;;;;1.00;1.00;;;;;;;;4978619;28;45824;-63
2024/01/22 03:44:37;;;;;;;;;1.25;1.00;;;;;;;;4977778;28;45606;-63
2024/01/22 03:47:02;;;;;;;;;1.00;1.00;;;;;;;;4978676;28;45702;-63
2024/01/22 03:49:27;;;;;;;;;1.00;1.00;;;;;;;;4977755;28;45381;-63
2024/01/22 03:51:53;;;;;;;;;2.00;1.00;;;;;;;;4978267;28;45542;-63
2024/01/22 03:54:18;;;;;;;;;1.00;1.00;;;;;;;;4979147;28;45447;-63
2024/01/22 03:56:43;;;;;;;;;1.00;1.00;;;;;;;;4977998;28;45334;-63
2024/01/22 03:59:09;;;;;;;;;1.00;1.00;;;;;;;;4977282;28;45763;-63
2024/01/22 04:01:34;;;;;;;;;1.00;1.00;;;;;;;;4979179;28;46196;-63
2024/01/22 04:04:00;;;;;;;;;1.00;1.00;;;;;;;;4981989;28;45306;-63
2024/01/22 04:06:25;;;;;;;;;2.00;1.00;;;;;;;;4981268;28;45325;-63
2024/01/22 04:08:50;;;;;;;;;0.25;0.25;;;;;;;;4971035;28;45316;-63
2024/01/22 04:11:15;;;;;;;;;1.33;1.33;;;;;;;;4980563;28;48091;-63
2024/01/22 04:13:42;;;;;;;;;1.00;1.00;;;;;;;;4982157;28;45381;-63
2024/01/22 04:16:11;;;;;;;;;1.00;1.00;;;;;;;;4982278;28;45523;-63
2024/01/22 04:18:36;;;;;;;;;0.00;0.00;;;;;;;;4982427;28;45325;-64
2024/01/22 04:21:01;;;;;;;;;1.00;1.00;;;;;;;;4981384;28;45729;-64
2024/01/22 04:23:27;;;;;;;;;1.75;1.00;;;;;;;;4982160;28;45600;-64
2024/01/22 04:25:52;;;;;;;;;1.00;1.00;;;;;;;;4981959;28;45535;-63
2024/01/22 04:28:17;;;;;;;;;1.00;1.00;;;;;;;;4980832;28;45559;-64
2024/01/22 04:30:43;;;;;;;;;0.50;0.50;;;;;;;;4978545;28;46686;-64
2024/01/22 04:33:08;;;;;;;;;1.00;1.00;;;;;;;;4972562;28;45453;-64
2024/01/22 04:35:33;;;;;;;;;0.00;0.00;;;;;;;;4972537;28;45513;-64
2024/01/22 04:37:59;;;;;;;;;1.00;1.00;;;;;;;;4978531;28;45637;-64
2024/01/22 04:40:24;;;;;;;;;1.33;1.00;;;;;;;;4980824;28;45472;-64
2024/01/22 04:42:49;;;;;;;;;1.25;1.25;;;;;;;;4979606;28;45295;-64
2024/01/22 04:45:15;;;;;;;;;2.75;0.50;;;;;;;;4978510;28;45375;-63
2024/01/22 04:47:40;;;;;;;;;0.25;0.25;;;;;;;;4979964;28;45381;-65
2024/01/22 04:50:05;;;;;;;;;1.00;1.00;;;;;;;;4979880;28;47376;-62
2024/01/22 04:52:33;;;;;;;;;1.50;1.00;;;;;;;;4980290;28;45350;-62
2024/01/22 04:54:58;;;;;;;;;2.00;0.25;;;;;;;;4981411;28;45392;-62
2024/01/22 04:57:24;;;;;;;;;1.00;1.00;;;;;;;;4979655;28;45498;-62
2024/01/22 04:59:49;;;;;;;;;1.00;1.00;;;;;;;;4979615;28;45707;-62
2024/01/22 05:02:14;;;;;;;;;1.25;1.00;;;;;;;;4981576;28;45477;-62
2024/01/22 05:04:40;;;;;;;;;1.00;1.00;;;;;;;;4979710;28;45576;-62
2024/01/22 05:07:05;;;;;;;;;1.00;1.00;;;;;;;;4981144;28;45555;-62
2024/01/22 05:09:30;;;;;;;;;2.00;2.00;;;;;;;;4980939;28;46579;-62
2024/01/22 05:11:55;;;;;;;;;1.25;1.00;;;;;;;;4979942;28;45445;-62
2024/01/22 05:14:20;;;;;;;;;1.00;1.00;;;;;;;;4980897;28;45450;-62
2024/01/22 05:16:46;;;;;;;;;1.00;1.00;;;;;;;;4981207;28;45375;-62
2024/01/22 05:19:11;;;;;;;;;1.00;1.00;;;;;;;;4979141;28;47022;-62
2024/01/22 05:21:36;;;;;;;;;1.33;1.00;;;;;;;;4980005;28;45449;-62
2024/01/22 05:24:01;;;;;;;;;0.00;0.00;;;;;;;;4981244;28;45294;-62
2024/01/22 05:26:27;;;;;;;;;1.00;1.00;;;;;;;;4978618;28;45801;-62
2024/01/22 05:28:52;;;;;;;;;1.00;1.00;;;;;;;;4970949;28;45484;-62
2024/01/22 05:31:17;;;;;;;;;0.67;0.67;;;;;;;;4974655;28;45457;-62
2024/01/22 05:33:42;;;;;;;;;1.00;1.00;;;;;;;;4976080;28;45308;-63
2024/01/22 05:36:08;;;;;;;;;1.00;1.00;;;;;;;;4980246;28;45440;-62
2024/01/22 05:38:33;;;;;;;;;1.00;1.00;;;;;;;;4978736;28;45388;-62
2024/01/22 05:40:59;;;;;;;;;2.00;1.00;;;;;;;;4980727;28;45447;-62
2024/01/22 05:43:24;;;;;;;;;2.00;2.00;;;;;;;;4979011;28;45526;-62
2024/01/22 05:45:49;;;;;;;;;1.33;1.33;;;;;;;;4980024;28;45455;-62
2024/01/22 05:48:14;;;;;;;;;4.00;2.00;;;;;;;;4980198;28;46524;-62
2024/01/22 05:50:40;;;;;;;;;1.00;1.00;;;;;;;;4979793;28;45312;-62
2024/01/22 05:53:05;;;;;;;;;2.00;1.00;;;;;;;;4980794;28;45305;-62
2024/01/22 05:55:30;;;;;;;;;1.00;1.00;;;;;;;;4979074;28;45878;-62
2024/01/22 05:57:55;;;;;;;;;1.33;1.00;;;;;;;;4978636;28;45447;-62
2024/01/22 06:00:21;;;;;;;;;2.00;1.00;;;;;;;;4980389;28;45466;-62
2024/01/22 06:02:46;;;;;;;;;1.00;1.00;;;;;;;;4979043;28;45273;-62
2024/01/22 06:05:12;;;;;;;;;1.00;1.00;;;;;;;;4980156;28;45317;-62
2024/01/22 06:07:37;;;;;;;;;0.25;0.25;;;;;;;;4980185;28;45469;-62
2024/01/22 06:10:04;;;;;;;;;1.00;1.00;;;;;;;;4980219;28;45443;-62
2024/01/22 06:12:30;;;;;;;;;1.25;1.00;;;;;;;;4980332;28;45612;-62
2024/01/22 06:14:55;;;;;;;;;1.00;1.00;;;;;;;;4980015;28;45550;-62
2024/01/22 06:17:20;;;;;;;;;1.00;0.67;;;;;;;;4980146;28;46222;-62
2024/01/22 06:19:45;;;;;;;;;3.00;1.00;;;;;;;;4978179;28;45460;-62
2024/01/22 06:22:12;;;;;;;;;1.00;1.00;;;;;;;;4980230;28;45431;-63
2024/01/22 06:24:38;;;;;;;;;2.00;2.00;;;;;;;;4978240;28;45555;-62
2024/01/22 06:27:03;;;;;;;;;1.75;1.50;;;;;;;;4977064;28;46354;-63
2024/01/22 06:29:28;;;;;;;;;1.00;1.00;;;;;;;;4977286;28;45518;-62
2024/01/22 06:31:54;;;;;;;;;1.00;1.00;;;;;;;;4974512;28;45448;-62
2024/01/22 06:34:20;;;;;;;;;4.00;1.00;;;;;;;;4979841;28;45376;-62
2024/01/22 06:36:45;;;;;;;;;0.50;0.00;;;;;;;;4978474;28;45457;-62
2024/01/22 06:39:10;;;;;;;;;2.25;1.00;;;;;;;;4979637;28;45509;-62
2024/01/22 06:41:36;;;;;;;;;1.00;1.00;;;;;;;;4979922;28;45257;-62
2024/01/22 06:44:01;;;;;;;;;2.00;1.00;;;;;;;;4978311;28;45362;-62
2024/01/22 06:46:27;;;;;;;;;1.50;1.50;;;;;;;;4979204;28;45314;-63
2024/01/22 06:48:52;;;;;;;;;2.75;2.75;;;;;;;;4978928;28;45434;-62
2024/01/22 06:51:17;;;;;;;;;1.75;1.75;;;;;;;;4979646;28;45356;-62
2024/01/22 06:53:43;;;;;;;;;1.00;1.00;;;;;;;;4979717;28;45455;-62
2024/01/22 06:56:08;;;;;;;;;1.50;1.50;;;;;;;;4978407;28;45394;-62
2024/01/22 06:58:33;;;;;;;;;1.50;1.50;;;;;;;;4978742;28;45598;-62
2024/01/22 07:00:59;;;;;;;;;3.00;1.67;;;;;;;;4979814;28;45381;-62
2024/01/22 07:03:24;;;;;;;;;2.50;2.00;;;;;;;;4979503;28;45320;-62
2024/01/22 07:05:49;;;;;;;;;2.50;2.50;;;;;;;;4979016;28;46311;-62
2024/01/22 07:08:15;;;;;;;;;2.50;2.00;;;;;;;;4978985;28;45621;-63
2024/01/22 07:10:40;;;;;;;;;1.00;1.00;;;;;;;;4976471;28;45442;-61
2024/01/22 07:13:10;;;;;;;;;2.00;2.00;;;;;;;;4976712;28;45475;-70
2024/01/22 07:15:36;;;;;;;;;0.00;0.00;;;;;;;;4979226;28;45487;-69
2024/01/22 07:18:01;;;;;;;;;1.25;1.25;;;;;;;;4977911;28;45413;-70
2024/01/22 07:20:29;;;;;;;;;1.00;1.00;;;;;;;;4977622;28;45441;-69
2024/01/22 07:26:42;;;;;;;;;;;;;;;;;;;;;
2024/01/22 07:38:00;;;;;;;;;2.00;0.75;;;;;;;;5059082;22;45736;-74
2024/01/22 07:40:26;;;;;;;;;1.25;1.25;;;;;;;;5002939;28;45457;-74
2024/01/22 07:42:51;;;;;;;;;1.00;1.00;;;;;;;;4999338;28;45663;-74
2024/01/22 07:45:16;;;;;;;;;1.00;1.00;;;;;;;;5000036;28;45449;-74
2024/01/22 07:47:43;;;;;;;;;1.25;1.25;;;;;;;;5001786;28;45334;-74
2024/01/22 07:50:13;;;;;;;;;2.00;1.00;;;;;;;;5001289;28;45430;-74
2024/01/22 07:52:39;;;;;;;;;1.00;1.00;;;;;;;;5000660;28;45293;-75
2024/01/22 07:55:05;;;;;;;;;1.00;1.00;;;;;;;;5002219;28;45622;-75
2024/01/22 07:57:30;;;;;;;;;1.00;1.00;;;;;;;;5005847;28;45832;-74
2024/01/22 07:59:56;;;;;;;;;1.00;1.00;;;;;;;;5008657;28;45287;-75
2024/01/22 08:02:21;;;;;;;;;2.00;1.00;;;;;;;;5006548;28;45235;-75
2024/01/22 08:04:46;;;;;;;;;2.33;1.33;;;;;;;;5000265;28;45367;-74
2024/01/22 08:07:11;;;;;;;;;1.67;1.00;;;;;;;;4989268;28;45642;-75
2024/01/22 08:09:37;;;;;;;;;1.00;1.00;;;;;;;;5001309;28;45525;-76
2024/01/22 08:12:03;;;;;;;;;1.00;1.00;;;;;;;;5001457;28;45397;-77
2024/01/22 08:14:28;;;;;;;;;1.00;1.00;;;;;;;;4997596;28;45851;-75
2024/01/22 08:16:54;;;;;;;;;3.00;2.00;;;;;;;;4998897;28;45422;-74
2024/01/22 08:19:19;;;;;;;;;1.00;1.00;;;;;;;;4998811;28;45380;-75
2024/01/22 08:21:44;;;;;;;;;2.67;1.00;;;;;;;;4996731;28;45533;-75
2024/01/22 08:24:09;;;;;;;;;0.00;0.00;;;;;;;;4993008;28;45834;-75
2024/01/22 08:26:34;;;;;;;;;1.33;1.00;;;;;;;;5000305;28;45564;-75
2024/01/22 08:29:00;;;;;;;;;1.50;1.00;;;;;;;;5002524;28;45298;-75
2024/01/22 08:31:25;;;;;;;;;0.00;0.00;;;;;;;;5000852;28;45335;-74
2024/01/22 08:33:50;;;;;;;;;0.00;0.00;;;;;;;;4999828;28;45568;-75
2024/01/22 08:36:15;;;;;;;;;0.00;0.00;;;;;;;;5004750;28;45420;-75
2024/01/22 08:38:41;;;;;;;;;0.50;0.50;;;;;;;;4997547;28;45280;-75
2024/01/22 08:41:08;;;;;;;;;2.00;1.00;;;;;;;;5000401;28;45281;-74
2024/01/22 08:43:33;;;;;;;;;0.25;0.25;;;;;;;;4999662;28;45735;-74
2024/01/22 08:45:58;;;;;;;;;2.33;1.00;;;;;;;;5000879;28;46396;-74
2024/01/22 08:48:24;;;;;;;;;0.00;0.00;;;;;;;;4999036;28;45616;-75
2024/01/22 08:50:50;;;;;;;;;0.00;0.00;;;;;;;;4993086;28;45411;-75
2024/01/22 08:53:15;;;;;;;;;1.00;1.00;;;;;;;;4998074;28;45430;-75
2024/01/22 08:55:40;;;;;;;;;1.00;0.50;;;;;;;;5000856;28;48105;-75
2024/01/22 08:58:05;;;;;;;;;0.00;0.00;;;;;;;;5001679;28;44848;-75
2024/01/22 09:00:31;;;;;;;;;1.00;1.00;;;;;;;;5002194;28;45503;-75
2024/01/22 09:02:56;;;;;;;;;1.33;1.00;;;;;;;;5003023;28;45455;-75
2024/01/22 09:05:21;;;;;;;;;1.67;1.67;;;;;;;;5003017;28;45448;-75
2024/01/22 09:07:48;;;;;;;;;0.00;0.00;;;;;;;;5002869;28;45453;-75
2024/01/22 09:10:14;;;;;;;;;1.75;1.00;;;;;;;;4999842;28;45419;-75
2024/01/22 09:12:39;;;;;;;;;1.00;1.00;;;;;;;;5004543;28;45346;-75
2024/01/22 09:15:05;;;;;;;;;2.00;1.00;;;;;;;;5002204;28;45307;-75
2024/01/22 09:17:30;;;;;;;;;0.00;0.00;;;;;;;;5001255;28;45489;-75
2024/01/22 09:19:55;;;;;;;;;1.00;1.00;;;;;;;;5001921;28;45328;-75
2024/01/22 09:22:21;;;;;;;;;2.00;0.00;;;;;;;;5003858;28;45258;-74
2024/01/22 09:24:46;;;;;;;;;2.00;0.25;;;;;;;;5001226;28;45647;-74
2024/01/22 09:27:11;;;;;;;;;3.00;1.00;;;;;;;;4996959;28;45293;-74
2024/01/22 09:29:37;;;;;;;;;1.00;1.00;;;;;;;;5004462;28;45382;-75
2024/01/22 09:32:02;;;;;;;;;1.50;1.00;;;;;;;;5003136;28;45442;-74
2024/01/22 09:34:28;;;;;;;;;3.00;1.00;;;;;;;;5002838;28;46437;-75
2024/01/22 09:36:53;;;;;;;;;1.75;0.75;;;;;;;;5014341;28;45403;-75
2024/01/22 09:39:19;;;;;;;;;3.00;2.00;;;;;;;;5001695;28;45584;-75
2024/01/22 09:41:44;;;;;;;;;2.00;1.00;;;;;;;;5002730;28;45476;-74
2024/01/22 09:44:09;;;;;;;;;0.67;0.67;;;;;;;;5002667;28;46225;-74
2024/01/22 09:46:35;;;;;;;;;0.00;0.00;;;;;;;;5002733;28;45808;-74
2024/01/22 09:49:00;;;;;;;;;1.00;1.00;;;;;;;;4999430;28;45430;-74
2024/01/22 09:51:28;;;;;;;;;1.25;0.75;;;;;;;;4996721;28;45562;-74
2024/01/22 09:53:57;;;;;;;;;1.00;1.00;;;;;;;;5003145;28;47476;-74
2024/01/22 09:56:23;;;;;;;;;2.00;1.00;;;;;;;;5004646;28;45451;-75
2024/01/22 09:58:52;;;;;;;;;3.00;2.00;;;;;;;;5000505;28;45370;-75
2024/01/22 10:01:17;;;;;;;;;3.00;1.00;;;;;;;;5001977;28;45431;-75
2024/01/22 10:03:43;;;;;;;;;3.67;1.00;;;;;;;;5002994;28;46073;-80
2024/01/22 10:06:08;;;;;;;;;2.25;2.25;;;;;;;;5002483;28;45374;-77
2024/01/22 10:08:34;;;;;;;;;1.00;1.00;;;;;;;;5002816;28;45722;-78
2024/01/22 10:10:59;;;;;;;;;2.67;1.00;;;;;;;;5001094;28;45311;-81
2024/01/22 10:13:24;;;;;;;;;4.00;1.67;;;;;;;;5002192;28;45802;-78
2024/01/22 10:15:50;;;;;;;;;2.25;1.25;;;;;;;;5006927;28;45323;-77
2024/01/22 10:18:18;;;;;;;;;1.25;1.25;;;;;;;;5001009;28;45558;-77
2024/01/22 10:20:44;;;;;;;;;3.50;2.00;;;;;;;;5002144;28;45402;-80
2024/01/22 10:23:13;;;;;;;;;4.75;2.75;;;;;;;;5000247;28;47151;-79
2024/01/22 10:25:39;;;;;;;;;4.00;2.00;;;;;;;;4999427;28;45697;-78
2024/01/22 10:28:08;;;;;;;;;3.75;2.75;;;;;;;;5003151;28;45341;-76
2024/01/22 10:30:33;;;;;;;;;5.25;1.00;;;;;;;;4999867;28;45555;-75
2024/01/22 10:33:18;;;;;;;;;3.00;2.50;;;;;;;;4999511;28;47094;-83
2024/01/22 10:35:44;;;;;;;;;4.50;2.00;;;;;;;;5005389;28;45241;-75
2024/01/22 10:38:09;;;;;;;;;5.50;3.50;;;;;;;;5005343;28;45257;-76
2024/01/22 10:40:34;;;;;;;;;6.33;2.00;;;;;;;;5000631;28;45344;-76
2024/01/22 10:43:16;;;;;;;;;4.75;2.75;;;;;;;;5002084;28;45827;-76
2024/01/22 10:45:43;;;;;;;;;5.75;3.00;;;;;;;;4994754;28;45554;-76
2024/01/22 10:48:08;;;;;;;;;4.75;3.00;;;;;;;;5000351;28;45362;-76
2024/01/22 10:50:34;;;;;;;;;3.00;1.67;;;;;;;;5000610;28;45664;-76
2024/01/22 10:52:59;;;;;;;;;5.00;2.75;;;;;;;;4999188;28;46637;-77
2024/01/22 10:55:24;;;;;;;;;4.67;2.33;;;;;;;;5001500;28;45342;-75
2024/01/22 10:57:51;;;;;;;;;6.67;3.00;;;;;;;;5005172;28;45378;-75
2024/01/22 11:00:17;;;;;;;;;7.25;5.25;;;;;;;;5000997;28;45566;-75
2024/01/22 11:02:44;;;;;;;;;4.75;1.75;;;;;;;;5000031;28;46303;-75
2024/01/22 11:05:13;;;;;;;;;2.75;2.50;;;;;;;;4997317;28;45421;-75
2024/01/22 11:07:39;;;;;;;;;4.75;2.75;;;;;;;;5000566;28;46476;-74
2024/01/22 11:10:05;;;;;;;;;4.25;3.50;;;;;;;;4983624;28;45777;-74
2024/01/22 11:12:34;;;;;;;;;4.00;4.00;;;;;;;;5000550;28;46398;-75
2024/01/22 11:14:59;;;;;;;;;7.50;4.00;;;;;;;;5001140;28;45357;-75
2024/01/22 11:17:25;;;;;;;;;7.25;4.25;;;;;;;;5003761;28;45310;-75
2024/01/22 11:19:50;;;;;;;;;12.50;5.25;;;;;;;;5006977;28;45686;-75
2024/01/22 11:22:23;;;;;;;;;3.25;3.25;;;;;;;;5000008;28;46331;-75
2024/01/22 11:25:09;;;;;;;;;3.75;2.50;;;;;;;;5001384;28;45449;-75
2024/01/22 11:27:41;;;;;;;;;6.25;3.00;;;;;;;;4994710;28;45439;-74
2024/01/22 11:30:18;;;;;;;;;4.50;3.75;;;;;;;;5002743;28;45450;-75
2024/01/22 11:32:43;;;;;;;;;6.75;2.75;;;;;;;;5000709;28;45792;-75
2024/01/22 11:35:09;;;;;;;;;4.33;3.67;;;;;;;;5000910;28;45503;-75
2024/01/22 11:37:35;;;;;;;;;5.50;4.00;;;;;;;;5005040;28;45435;-75
2024/01/22 11:40:00;;;;;;;;;5.00;3.25;;;;;;;;5000969;28;45710;-75
2024/01/22 11:42:28;;;;;;;;;7.50;4.00;;;;;;;;5001882;28;45465;-75
2024/01/22 11:44:53;;;;;;;;;4.25;3.25;;;;;;;;5000716;28;45547;-75
2024/01/22 11:47:18;;;;;;;;;5.33;3.00;;;;;;;;5000357;28;45413;-75
2024/01/22 11:49:44;;;;;;;;;6.00;3.50;;;;;;;;5000723;28;45345;-76
2024/01/22 11:52:12;;;;;;;;;3.50;3.25;;;;;;;;5002199;28;46059;-78
2024/01/22 11:54:38;;;;;;;;;8.00;5.00;;;;;;;;5000580;28;45326;-78
2024/01/22 11:57:04;;;;;;;;;3.50;1.50;;;;;;;;4997521;28;45458;-78
2024/01/22 11:59:29;;;;;;;;;3.25;1.75;;;;;;;;4995967;28;45856;-76
2024/01/22 12:02:04;;;;;;;;;2.67;2.00;;;;;;;;4996868;28;47306;-75
2024/01/22 12:04:30;;;;;;;;;5.75;4.00;;;;;;;;4986226;28;45638;-76
2024/01/22 12:06:55;;;;;;;;;6.00;2.67;;;;;;;;5005342;28;45450;-76
2024/01/22 12:09:20;;;;;;;;;5.33;2.00;;;;;;;;4999727;28;45498;-76
2024/01/22 12:11:52;;;;;;;;;3.67;2.33;;;;;;;;5000329;28;45368;-75
2024/01/22 12:14:17;;;;;;;;;7.25;5.00;;;;;;;;4997981;28;45534;-77
2024/01/22 12:16:43;;;;;;;;;2.00;1.00;;;;;;;;4997275;28;45959;-77
2024/01/22 12:19:11;;;;;;;;;7.50;3.00;;;;;;;;4998202;28;45450;-78
2024/01/22 12:21:39;;;;;;;;;4.50;2.25;;;;;;;;5008977;28;47191;-78
2024/01/22 12:24:12;;;;;;;;;7.25;3.00;;;;;;;;4996579;28;45466;-78
2024/01/22 12:26:40;;;;;;;;;3.00;1.50;;;;;;;;5001816;28;45215;-78
2024/01/22 12:29:05;;;;;;;;;3.25;3.00;;;;;;;;5009850;28;45320;-81
2024/01/22 12:31:30;;;;;;;;;7.00;3.00;;;;;;;;4998537;28;45911;-75
2024/01/22 12:34:08;;;;;;;;;2.00;2.00;;;;;;;;4999859;28;45433;-75
2024/01/22 12:36:33;;;;;;;;;5.50;2.00;;;;;;;;5008342;28;45321;-75
2024/01/22 12:39:02;;;;;;;;;2.33;1.33;;;;;;;;5002719;28;45469;-74
2024/01/22 12:41:27;;;;;;;;;2.75;2.00;;;;;;;;5003646;28;45549;-75
2024/01/22 12:43:59;;;;;;;;;2.67;2.00;;;;;;;;5003740;28;45316;-75
2024/01/22 12:46:24;;;;;;;;;4.25;3.00;;;;;;;;5001061;28;45443;-75
2024/01/22 12:48:49;;;;;;;;;4.75;3.75;;;;;;;;5002253;28;45358;-75
2024/01/22 12:51:16;;;;;;;;;2.75;1.75;;;;;;;;5003348;28;45297;-75
2024/01/22 12:53:41;;;;;;;;;2.50;2.00;;;;;;;;4998723;28;45630;-75
2024/01/22 12:56:07;;;;;;;;;2.25;2.25;;;;;;;;4998133;28;45110;-74
2024/01/22 12:58:34;;;;;;;;;3.75;3.75;;;;;;;;5003840;28;45611;-75
2024/01/22 13:00:59;;;;;;;;;2.25;2.00;;;;;;;;5002981;28;45315;-75
2024/01/22 13:03:24;;;;;;;;;4.00;2.67;;;;;;;;5002069;28;46035;-74
2024/01/22 13:05:50;;;;;;;;;2.00;1.00;;;;;;;;4999196;28;47080;-75
2024/01/22 13:08:15;;;;;;;;;5.25;3.00;;;;;;;;5003056;28;45620;-74
2024/01/22 13:10:40;;;;;;;;;5.00;2.00;;;;;;;;5003056;28;45469;-75
2024/01/22 13:13:06;;;;;;;;;3.00;3.00;;;;;;;;5007004;28;45428;-75
2024/01/22 13:15:31;;;;;;;;;5.00;2.00;;;;;;;;5004585;28;44840;-75
2024/01/22 13:17:57;;;;;;;;;3.00;2.00;;;;;;;;5001911;28;45481;-75
2024/01/22 13:20:22;;;;;;;;;2.75;2.75;;;;;;;;4999386;28;45472;-75
2024/01/22 13:22:47;;;;;;;;;2.00;1.00;;;;;;;;5000958;28;45489;-75
2024/01/22 13:25:12;;;;;;;;;2.00;2.00;;;;;;;;4999293;28;45522;-74
2024/01/22 13:27:37;;;;;;;;;1.00;0.33;;;;;;;;4998427;28;45425;-74
2024/01/22 13:30:03;;;;;;;;;3.00;3.00;;;;;;;;4999791;28;45405;-75
2024/01/22 13:32:28;;;;;;;;;1.25;1.25;;;;;;;;4999396;28;45545;-74
2024/01/22 13:34:54;;;;;;;;;4.00;2.00;;;;;;;;4998115;28;45465;-74
2024/01/22 13:37:20;;;;;;;;;2.25;1.00;;;;;;;;5007682;28;45251;-75
2024/01/22 13:39:45;;;;;;;;;2.00;1.00;;;;;;;;4999269;28;45648;-75
2024/01/22 13:42:10;;;;;;;;;2.33;2.00;;;;;;;;4997453;28;45509;-74
2024/01/22 13:44:35;;;;;;;;;3.00;1.00;;;;;;;;5001511;28;45483;-74
2024/01/22 13:47:00;;;;;;;;;6.00;1.00;;;;;;;;5002462;28;45640;-74
2024/01/22 13:49:26;;;;;;;;;1.00;1.00;;;;;;;;5000812;28;46463;-75
2024/01/22 13:51:51;;;;;;;;;1.33;1.33;;;;;;;;5003030;28;45371;-75
2024/01/22 13:54:16;;;;;;;;;0.33;0.00;;;;;;;;5003435;28;45444;-74
2024/01/22 13:56:42;;;;;;;;;3.00;1.00;;;;;;;;5004503;28;45351;-74
2024/01/22 13:59:07;;;;;;;;;0.00;0.00;;;;;;;;5003606;28;45319;-74
2024/01/22 14:01:33;;;;;;;;;0.75;0.75;;;;;;;;5003426;28;45272;-75
2024/01/22 14:03:58;;;;;;;;;0.00;0.00;;;;;;;;5003221;28;45328;-74
2024/01/22 14:06:23;;;;;;;;;1.00;0.25;;;;;;;;5004245;28;45450;-74
2024/01/22 14:08:48;;;;;;;;;5.00;1.00;;;;;;;;5011572;28;45424;-74
2024/01/22 14:11:14;;;;;;;;;4.50;1.00;;;;;;;;5003218;28;45240;-74
2024/01/22 14:13:40;;;;;;;;;1.00;1.00;;;;;;;;5003922;28;45291;-74
2024/01/22 14:16:05;;;;;;;;;2.00;1.00;;;;;;;;5002389;28;45257;-75
2024/01/22 14:18:30;;;;;;;;;2.75;1.00;;;;;;;;5000788;28;46267;-74
2024/01/22 14:20:55;;;;;;;;;4.00;0.67;;;;;;;;5000963;28;45376;-74
2024/01/22 14:23:20;;;;;;;;;3.00;0.33;;;;;;;;5003226;28;45482;-75
2024/01/22 14:25:46;;;;;;;;;0.00;0.00;;;;;;;;5001530;28;45681;-75
2024/01/22 14:28:11;;;;;;;;;2.00;1.00;;;;;;;;5007349;28;47168;-75
2024/01/22 14:30:36;;;;;;;;;1.00;1.00;;;;;;;;5001636;28;45340;-74
2024/01/22 14:33:02;;;;;;;;;2.50;1.00;;;;;;;;4993036;28;45280;-76
2024/01/22 14:35:28;;;;;;;;;1.75;0.00;;;;;;;;5002645;28;45413;-75
2024/01/22 14:37:53;;;;;;;;;1.25;0.50;;;;;;;;5013076;28;45422;-75
2024/01/22 14:40:18;;;;;;;;;2.00;1.50;;;;;;;;5001182;28;45461;-75
2024/01/22 14:42:45;;;;;;;;;1.75;1.00;;;;;;;;4997185;28;45300;-75
2024/01/22 14:45:11;;;;;;;;;1.00;1.00;;;;;;;;5004484;28;45212;-75
2024/01/22 14:47:36;;;;;;;;;3.33;1.00;;;;;;;;5000288;28;45351;-75